Search for airport 
image banner adimage banner ad
image banner ad

SVSB - Santa Barbara De Barinas

Located in Barinas, Venezuela

ICAO - SVSB, IATA - SBB

Data provided by Airmate  

General information

Coordinates: N7°48'10" W71°9'57"
Elevation is 591 feet MSL.
 
View others Airports in Barinas

Operational data

Open for public use
Current time UTC:
Current local time:
METAR: SVGD 290102Z AUTO 09001KT NCD 25/25 Q1010
View NOTAMs / SUP AIP / TFR affecting this airport [VIEW]
Communications frequencies: [VIEW]

Runways:

RWY identifierQFULength (ft)Width (ft)SurfaceLDA (ft)
11111°5560131ASP
295577131

Airport contact information

Address: Barinas Venezuela

Satellite view of SVSB